Doyles Airport


Codes: DE00/
Name: Doyles Airport
City: Felton
Country: United States
Elevation: 51 ft.

Photos at Doyles Airport


   Photos courtesy of SpottingLog. You can add your own sightings and photos by signing up for a free trial today.



No photos found.

Weather at Doyles Airport


Time (UTC)DescriptionTempratureWindCloud coverageVisibilityPressureHumidity
21-Feb-2024 03:00Clear Sky0°C7 mph, E0%10000m1031hPa77%
21-Feb-2024 06:00Clear Sky-0°C7 mph, E5%10000m1031hPa75%
21-Feb-2024 09:00Scattered Clouds-0°C7 mph, NE38%10000m1031hPa76%
21-Feb-2024 12:00Broken Clouds-0°C7 mph, NE66%10000m1031hPa81%
21-Feb-2024 15:00Overcast Clouds4°C7 mph, NE87%10000m1031hPa58%
21-Feb-2024 18:00Broken Clouds6°C9 mph, E51%10000m1029hPa52%
21-Feb-2024 21:00Few Clouds6°C7 mph, E16%10000m1027hPa57%
22-Feb-2024 00:00Few Clouds2°C7 mph, SE11%10000m1026hPa81%
22-Feb-2024 03:00Scattered Clouds1°C7 mph, SE33%10000m1025hPa86%
22-Feb-2024 06:00Few Clouds1°C4 mph, SE20%10000m1024hPa89%
22-Feb-2024 09:00Few Clouds0°C2 mph, SE19%10000m1022hPa89%
22-Feb-2024 12:00Few Clouds0°C4 mph, SE14%10000m1021hPa90%
22-Feb-2024 15:00Broken Clouds6°C7 mph, S60%10000m1018hPa65%
22-Feb-2024 18:00Broken Clouds10°C9 mph, S61%10000m1014hPa56%
22-Feb-2024 21:00Overcast Clouds10°C11 mph, S88%10000m1010hPa60%
23-Feb-2024 00:00Overcast Clouds6°C13 mph, SE90%10000m1007hPa77%
23-Feb-2024 03:00Overcast Clouds6°C13 mph, S100%10000m1005hPa79%
23-Feb-2024 06:00Light Rain8°C13 mph, SW100%10000m1001hPa82%
23-Feb-2024 09:00Light Rain8°C13 mph, SW100%10000m998hPa85%
23-Feb-2024 12:00Overcast Clouds8°C11 mph, SW100%10000m997hPa88%
23-Feb-2024 15:00Overcast Clouds10°C13 mph, W100%10000m998hPa84%
23-Feb-2024 18:00Overcast Clouds10°C16 mph, NW100%10000m998hPa72%
23-Feb-2024 21:00Overcast Clouds11°C11 mph, NW100%10000m999hPa64%
24-Feb-2024 00:00Overcast Clouds7°C7 mph, NW96%10000m1001hPa79%
24-Feb-2024 03:00Overcast Clouds8°C13 mph, NW100%10000m1003hPa64%
24-Feb-2024 06:00Broken Clouds4°C11 mph, NW79%10000m1004hPa71%
24-Feb-2024 09:00Scattered Clouds4°C11 mph, NW34%10000m1005hPa69%
24-Feb-2024 12:00Few Clouds1°C13 mph, NW21%10000m1009hPa75%
24-Feb-2024 15:00Scattered Clouds2°C16 mph, NW42%10000m1011hPa44%
24-Feb-2024 18:00Broken Clouds4°C13 mph, NW71%10000m1012hPa40%
24-Feb-2024 21:00Overcast Clouds4°C13 mph, NW94%10000m1013hPa38%
25-Feb-2024 00:00Broken Clouds1°C9 mph, NW56%10000m1017hPa48%
25-Feb-2024 03:00Clear Sky-1°C7 mph, N0%10000m1020hPa56%
25-Feb-2024 06:00Clear Sky-1°C4 mph, NE0%10000m1021hPa54%
25-Feb-2024 09:00Clear Sky-1°C0 mph, E0%10000m1022hPa53%
25-Feb-2024 12:00Clear Sky-1°C4 mph, S0%10000m1023hPa54%
25-Feb-2024 15:00Scattered Clouds4°C9 mph, S33%10000m1024hPa39%
25-Feb-2024 18:00Broken Clouds7°C11 mph, SW64%10000m1021hPa35%
25-Feb-2024 21:00Few Clouds8°C13 mph, S19%10000m1020hPa40%
26-Feb-2024 00:00Broken Clouds3°C13 mph, S53%10000m1020hPa58%